Wetterdaten: Woche 19.09.16 - 25.09.16 (KW38)
Datum Zeit Temp. A. Feuchte A. Luftdruck Regen Wind Richtung Taupunkt Windchill Windben
19.09.2016 00:00 16,2 C 82 % 1010,0 hPa 0,0 l/m 0,0 km/h N 13,1 C 16,2 C 0,8 km/h
19.09.2016 01:00 16,1 C 82 % 1010,1 hPa 0,0 l/m 0,0 km/h N 13,0 C 16,1 C 0,8 km/h
19.09.2016 02:00 15,9 C 82 % 1009,9 hPa 0,0 l/m 0,1 km/h N 12,8 C 15,9 C 2,0 km/h
19.09.2016 03:00 15,9 C 82 % 1009,8 hPa 0,0 l/m 0,0 km/h N 12,8 C 15,9 C 0,8 km/h
19.09.2016 04:00 15,9 C 82 % 1009,5 hPa 0,0 l/m 0,8 km/h N 12,7 C 15,9 C 7,6 km/h
19.09.2016 05:00 15,8 C 81 % 1009,6 hPa 0,0 l/m 2,2 km/h N 12,5 C 15,8 C 8,9 km/h
19.09.2016 06:00 15,6 C 81 % 1009,6 hPa 0,0 l/m 1,3 km/h N 12,4 C 15,6 C 8,9 km/h
19.09.2016 07:00 15,6 C 81 % 1009,5 hPa 0,0 l/m 0,2 km/h N 12,4 C 15,6 C 3,2 km/h
19.09.2016 08:00 16,1 C 80 % 1009,6 hPa 0,0 l/m 3,0 km/h N 12,7 C 16,1 C 15,0 km/h
19.09.2016 09:00 16,9 C 79 % 1009,8 hPa 0,0 l/m 6,6 km/h N 13,3 C 16,6 C 19,3 km/h
19.09.2016 10:00 17,8 C 77 % 1010,1 hPa 0,0 l/m 8,6 km/h N 13,7 C 16,8 C 22,9 km/h
19.09.2016 11:00 18,4 C 76 % 1010,1 hPa 0,0 l/m 8,6 km/h N 14,0 C 17,5 C 21,3 km/h
19.09.2016 12:00 18,9 C 75 % 1010,1 hPa 0,0 l/m 7,3 km/h N 14,3 C 18,5 C 20,1 km/h
19.09.2016 13:00 19,1 C 74 % 1010,0 hPa 0,0 l/m 7,5 km/h N 14,3 C 18,7 C 21,3 km/h
19.09.2016 14:00 19,3 C 74 % 1009,6 hPa 0,0 l/m 9,4 km/h N 14,5 C 18,1 C 27,4 km/h
19.09.2016 15:00 19,5 C 72 % 1009,5 hPa 0,0 l/m 9,9 km/h N 14,4 C 18,1 C 26,5 km/h
19.09.2016 16:00 19,1 C 73 % 1009,6 hPa 0,0 l/m 8,1 km/h N 14,1 C 18,4 C 22,1 km/h
19.09.2016 17:00 18,4 C 74 % 1009,9 hPa 0,0 l/m 8,3 km/h N 13,7 C 17,5 C 24,6 km/h
19.09.2016 18:00 17,0 C 78 % 1010,5 hPa 0,0 l/m 7,9 km/h N 13,1 C 16,3 C 22,1 km/h
19.09.2016 19:00 16,4 C 78 % 1010,9 hPa 0,0 l/m 8,3 km/h N 12,5 C 15,5 C 23,3 km/h
19.09.2016 20:00 16,3 C 76 % 1011,4 hPa 0,0 l/m 7,3 km/h N 12,0 C 15,8 C 21,3 km/h
19.09.2016 21:00 16,3 C 75 % 1011,9 hPa 0,0 l/m 8,0 km/h N 11,9 C 15,4 C 25,3 km/h
19.09.2016 22:00 15,2 C 80 % 1012,2 hPa 0,0 l/m 7,3 km/h N 11,7 C 14,6 C 21,7 km/h
19.09.2016 23:00 14,9 C 79 % 1012,5 hPa 0,0 l/m 7,1 km/h N 11,2 C 14,5 C 20,9 km/h
20.09.2016 00:00 14,7 C 78 % 1012,7 hPa 0,0 l/m 6,8 km/h N 10,8 C 14,5 C 20,1 km/h
20.09.2016 01:00 14,4 C 79 % 1012,8 hPa 0,0 l/m 8,2 km/h N 10,7 C 13,3 C 21,7 km/h
20.09.2016 02:00 14,0 C 80 % 1012,9 hPa 0,0 l/m 7,3 km/h N 10,5 C 13,5 C 21,3 km/h
20.09.2016 03:00 13,8 C 80 % 1012,9 hPa 0,0 l/m 7,4 km/h N 10,3 C 13,2 C 23,3 km/h
20.09.2016 04:00 13,6 C 80 % 1013,3 hPa 0,0 l/m 7,7 km/h N 10,1 C 12,6 C 21,3 km/h
20.09.2016 05:00 13,0 C 80 % 1013,6 hPa 0,0 l/m 6,5 km/h N 9,7 C 12,8 C 19,7 km/h
20.09.2016 06:00 12,9 C 80 % 1014,1 hPa 0,0 l/m 5,1 km/h N 9,4 C 12,9 C 16,5 km/h
20.09.2016 07:00 13,0 C 77 % 1014,4 hPa 0,0 l/m 6,2 km/h N 9,1 C 12,7 C 18,1 km/h
20.09.2016 08:00 13,5 C 76 % 1014,7 hPa 0,0 l/m 7,4 km/h N 9,2 C 12,7 C 21,7 km/h
20.09.2016 09:00 14,3 C 72 % 1015,0 hPa 0,0 l/m 7,0 km/h N 9,2 C 13,9 C 20,5 km/h
20.09.2016 10:00 14,7 C 71 % 1015,3 hPa 0,0 l/m 7,2 km/h N 9,4 C 14,2 C 21,7 km/h
20.09.2016 11:00 16,3 C 62 % 1015,1 hPa 0,0 l/m 7,0 km/h N 9,0 C 16,0 C 22,5 km/h
20.09.2016 12:00 16,6 C 58 % 1014,9 hPa 0,0 l/m 8,3 km/h N 8,2 C 15,7 C 20,9 km/h
20.09.2016 13:00 16,6 C 56 % 1014,9 hPa 0,0 l/m 8,5 km/h N 7,7 C 15,5 C 24,1 km/h
20.09.2016 14:00 16,8 C 56 % 1014,7 hPa 0,0 l/m 6,8 km/h N 7,9 C 16,5 C 21,4 km/h
20.09.2016 15:00 16,5 C 54 % 1014,5 hPa 0,0 l/m 8,0 km/h N 7,2 C 15,7 C 24,1 km/h
20.09.2016 16:00 16,5 C 54 % 1014,8 hPa 0,0 l/m 8,0 km/h N 7,1 C 15,6 C 21,7 km/h
20.09.2016 17:00 16,1 C 53 % 1015,0 hPa 0,0 l/m 7,2 km/h N 6,4 C 15,7 C 25,0 km/h
20.09.2016 18:00 15,5 C 53 % 1015,5 hPa 0,0 l/m 5,6 km/h N 5,8 C 15,5 C 21,7 km/h
20.09.2016 19:00 14,6 C 59 % 1015,9 hPa 0,0 l/m 2,4 km/h N 6,6 C 14,6 C 12,9 km/h
20.09.2016 20:00 13,9 C 62 % 1016,7 hPa 0,0 l/m 2,4 km/h N 6,6 C 13,9 C 8,9 km/h
20.09.2016 21:00 14,0 C 62 % 1017,2 hPa 0,0 l/m 2,4 km/h N 6,7 C 14,0 C 12,1 km/h
20.09.2016 22:00 13,5 C 64 % 1017,3 hPa 0,0 l/m 0,8 km/h N 6,7 C 13,5 C 7,3 km/h
20.09.2016 23:00 13,1 C 65 % 1017,5 hPa 0,0 l/m 0,8 km/h N 6,6 C 13,1 C 6,4 km/h
21.09.2016 00:00 12,8 C 67 % 1017,6 hPa 0,0 l/m 0,0 km/h N 6,7 C 12,8 C 4,8 km/h
21.09.2016 01:00 11,9 C 69 % 1017,5 hPa 0,0 l/m 0,0 km/h N 6,3 C 11,9 C 3,2 km/h
21.09.2016 02:00 10,4 C 74 % 1017,5 hPa 0,0 l/m 0,0 km/h N 5,9 C 10,4 C 2,4 km/h
21.09.2016 03:00 10,9 C 73 % 1017,3 hPa 0,0 l/m 2,4 km/h N 6,3 C 10,9 C 8,1 km/h
21.09.2016 04:00 11,5 C 71 % 1017,3 hPa 0,0 l/m 2,4 km/h N 6,4 C 11,5 C 8,9 km/h
21.09.2016 05:00 11,7 C 70 % 1017,4 hPa 0,0 l/m 1,6 km/h N 6,4 C 11,7 C 9,6 km/h
21.09.2016 06:00 11,8 C 70 % 1017,5 hPa 0,0 l/m 4,0 km/h N 6,5 C 11,8 C 13,7 km/h
21.09.2016 07:00 12,0 C 69 % 1017,7 hPa 0,0 l/m 1,6 km/h N 6,5 C 12,0 C 9,7 km/h
21.09.2016 08:00 12,1 C 68 % 1017,8 hPa 0,0 l/m 2,4 km/h N 6,3 C 12,1 C 12,1 km/h
21.09.2016 09:00 12,4 C 69 % 1018,0 hPa 0,0 l/m 2,4 km/h N 6,8 C 12,4 C 16,1 km/h
21.09.2016 10:00 13,4 C 69 % 1018,3 hPa 0,0 l/m 3,2 km/h N 7,7 C 13,4 C 17,7 km/h
21.09.2016 11:00 14,6 C 67 % 1018,3 hPa 0,0 l/m 4,8 km/h N 8,5 C 14,6 C 14,5 km/h
21.09.2016 12:00 15,3 C 66 % 1018,2 hPa 0,0 l/m 4,8 km/h N 8,9 C 15,3 C 19,3 km/h
21.09.2016 13:00 16,4 C 63 % 1018,1 hPa 0,0 l/m 5,6 km/h N 9,3 C 16,4 C 17,7 km/h
21.09.2016 14:00 16,5 C 60 % 1017,9 hPa 0,0 l/m 5,6 km/h N 8,6 C 16,6 C 20,1 km/h
21.09.2016 15:00 16,6 C 58 % 1017,7 hPa 0,0 l/m 4,0 km/h N 8,3 C 16,6 C 14,5 km/h
21.09.2016 16:00 17,1 C 58 % 1017,3 hPa 0,0 l/m 4,0 km/h N 8,6 C 17,1 C 16,9 km/h
21.09.2016 17:00 17,2 C 58 % 1016,9 hPa 0,0 l/m 4,8 km/h N 8,7 C 17,2 C 18,5 km/h
21.09.2016 18:00 16,5 C 60 % 1017,0 hPa 0,0 l/m 4,0 km/h N 8,6 C 16,5 C 15,3 km/h
21.09.2016 19:00 15,6 C 63 % 1017,3 hPa 0,0 l/m 1,6 km/h N 8,5 C 15,6 C 12,1 km/h
21.09.2016 20:00 15,0 C 64 % 1017,8 hPa 0,0 l/m 1,6 km/h N 8,2 C 15,0 C 10,5 km/h
21.09.2016 21:00 15,0 C 64 % 1018,0 hPa 0,0 l/m 4,8 km/h N 8,1 C 15,0 C 20,9 km/h
21.09.2016 22:00 14,8 C 68 % 1018,8 hPa 0,0 l/m 1,6 km/h N 8,9 C 14,8 C 10,5 km/h
21.09.2016 23:00 14,1 C 72 % 1019,2 hPa 0,0 l/m 0,8 km/h N 9,0 C 14,1 C 8,0 km/h
22.09.2016 00:00 13,5 C 78 % 1019,5 hPa 0,0 l/m 0,0 km/h N 9,6 C 13,5 C 8,9 km/h
22.09.2016 01:00 12,9 C 80 % 1019,7 hPa 0,0 l/m 2,4 km/h N 9,6 C 12,9 C 8,9 km/h
22.09.2016 02:00 12,7 C 80 % 1019,8 hPa 0,0 l/m 0,0 km/h N 9,3 C 12,7 C 3,2 km/h
22.09.2016 03:00 12,4 C 80 % 1019,8 hPa 0,0 l/m 0,0 km/h N 9,0 C 12,4 C 5,6 km/h
22.09.2016 04:00 12,4 C 81 % 1020,0 hPa 0,0 l/m 0,8 km/h N 9,2 C 12,4 C 8,1 km/h
22.09.2016 05:00 12,4 C 81 % 1020,2 hPa 0,0 l/m 0,8 km/h N 9,2 C 12,4 C 7,2 km/h
22.09.2016 06:00 12,1 C 82 % 1020,6 hPa 0,0 l/m 1,6 km/h N 9,0 C 12,1 C 15,3 km/h
22.09.2016 07:00 11,9 C 82 % 1021,1 hPa 0,0 l/m 0,3 km/h N 8,9 C 11,9 C 5,2 km/h
22.09.2016 08:00 12,1 C 82 % 1021,6 hPa 0,0 l/m 0,9 km/h N 9,1 C 12,1 C 6,4 km/h
22.09.2016 09:00 13,0 C 77 % 1022,3 hPa 0,0 l/m 1,3 km/h N 9,1 C 13,0 C 8,9 km/h
22.09.2016 10:00 14,4 C 71 % 1022,7 hPa 0,0 l/m 2,2 km/h N 9,1 C 14,4 C 10,9 km/h
22.09.2016 11:00 15,6 C 60 % 1022,8 hPa 0,0 l/m 3,0 km/h N 7,9 C 15,6 C 12,1 km/h
22.09.2016 12:00 15,9 C 56 % 1022,8 hPa 0,0 l/m 3,8 km/h N 7,2 C 15,9 C 15,7 km/h
22.09.2016 13:00 16,7 C 53 % 1022,8 hPa 0,0 l/m 3,2 km/h N 7,2 C 16,7 C 14,1 km/h
22.09.2016 14:00 17,1 C 52 % 1022,4 hPa 0,0 l/m 3,1 km/h N 7,0 C 17,1 C 12,5 km/h
22.09.2016 15:00 17,0 C 51 % 1022,2 hPa 0,0 l/m 2,5 km/h N 6,8 C 17,0 C 13,7 km/h
22.09.2016 16:00 17,0 C 50 % 1022,1 hPa 0,0 l/m 1,5 km/h N 6,4 C 17,0 C 9,3 km/h
22.09.2016 17:00 16,7 C 49 % 1021,9 hPa 0,0 l/m 0,6 km/h N 6,0 C 16,7 C 4,4 km/h
22.09.2016 18:00 15,9 C 53 % 1022,0 hPa 0,0 l/m 0,0 km/h N 6,4 C 15,9 C 0,4 km/h
22.09.2016 19:00 13,8 C 60 % 1022,3 hPa 0,0 l/m 0,0 km/h N 6,1 C 13,8 C 0,0 km/h
22.09.2016 20:00 11,1 C 69 % 1022,7 hPa 0,0 l/m 0,0 km/h N 5,5 C 11,1 C 0,0 km/h
22.09.2016 21:00 9,8 C 77 % 1023,0 hPa 0,0 l/m 0,0 km/h N 5,9 C 9,8 C 1,2 km/h
22.09.2016 22:00 9,4 C 79 % 1023,1 hPa 0,0 l/m 0,0 km/h N 5,8 C 9,4 C 0,0 km/h
22.09.2016 23:00 8,8 C 80 % 1023,1 hPa 0,0 l/m 0,0 km/h N 5,5 C 8,8 C 0,4 km/h
23.09.2016 00:00 8,3 C 81 % 1023,0 hPa 0,0 l/m 0,0 km/h N 5,2 C 8,3 C 0,4 km/h
23.09.2016 01:00 8,2 C 81 % 1022,9 hPa 0,0 l/m 0,1 km/h N 5,1 C 8,2 C 0,8 km/h
23.09.2016 02:00 7,7 C 82 % 1022,9 hPa 0,0 l/m 0,1 km/h N 4,7 C 7,7 C 3,2 km/h
23.09.2016 03:00 7,9 C 82 % 1022,9 hPa 0,0 l/m 0,0 km/h N 5,0 C 7,9 C 1,2 km/h
23.09.2016 04:00 7,5 C 82 % 1023,1 hPa 0,0 l/m 0,0 km/h N 4,6 C 7,5 C 0,8 km/h
23.09.2016 05:00 6,6 C 82 % 1023,0 hPa 0,0 l/m 0,0 km/h N 3,8 C 6,6 C 0,0 km/h
23.09.2016 06:00 6,0 C 83 % 1023,2 hPa 0,0 l/m 0,0 km/h N 3,3 C 6,0 C 0,0 km/h
23.09.2016 07:00 6,1 C 83 % 1024,0 hPa 0,0 l/m 0,0 km/h N 3,5 C 6,1 C 0,4 km/h
23.09.2016 08:00 7,3 C 83 % 1024,5 hPa 0,0 l/m 0,0 km/h N 4,6 C 7,3 C 0,0 km/h
23.09.2016 09:00 10,3 C 83 % 1024,8 hPa 0,0 l/m 0,0 km/h N 7,5 C 10,3 C 1,6 km/h
23.09.2016 10:00 14,9 C 72 % 1024,8 hPa 0,0 l/m 0,0 km/h N 9,9 C 14,9 C 1,6 km/h
23.09.2016 11:00 17,9 C 61 % 1024,7 hPa 0,0 l/m 0,1 km/h N 10,2 C 17,9 C 2,8 km/h
23.09.2016 12:00 18,9 C 52 % 1024,6 hPa 0,0 l/m 2,0 km/h N 8,8 C 18,9 C 9,6 km/h
23.09.2016 13:00 19,0 C 52 % 1024,8 hPa 0,0 l/m 3,0 km/h N 9,0 C 19,0 C 14,5 km/h
23.09.2016 14:00 19,5 C 50 % 1024,4 hPa 0,0 l/m 4,1 km/h N 8,6 C 19,5 C 14,1 km/h
23.09.2016 15:00 19,8 C 48 % 1024,1 hPa 0,0 l/m 2,0 km/h N 8,5 C 19,8 C 10,9 km/h
23.09.2016 16:00 19,9 C 47 % 1024,0 hPa 0,0 l/m 1,4 km/h N 8,3 C 19,9 C 8,4 km/h
23.09.2016 17:00 19,8 C 49 % 1024,1 hPa 0,0 l/m 1,4 km/h N 8,7 C 19,8 C 10,1 km/h
23.09.2016 18:00 18,9 C 53 % 1024,3 hPa 0,0 l/m 0,1 km/h N 9,1 C 18,9 C 1,6 km/h
23.09.2016 19:00 16,5 C 62 % 1024,8 hPa 0,0 l/m 0,0 km/h N 9,1 C 16,5 C 0,0 km/h
23.09.2016 20:00 14,8 C 68 % 1025,2 hPa 0,0 l/m 0,0 km/h N 8,9 C 14,8 C 0,8 km/h
23.09.2016 21:00 13,5 C 71 % 1025,4 hPa 0,0 l/m 0,0 km/h N 8,3 C 13,5 C 0,0 km/h
23.09.2016 22:00 12,6 C 76 % 1025,4 hPa 0,0 l/m 0,0 km/h N 8,4 C 12,6 C 0,0 km/h
23.09.2016 23:00 12,2 C 77 % 1025,4 hPa 0,0 l/m 0,0 km/h N 8,3 C 12,2 C 0,0 km/h
24.09.2016 00:00 12,0 C 78 % 1025,6 hPa 0,0 l/m 0,0 km/h N 8,2 C 12,0 C 0,0 km/h
24.09.2016 01:00 11,1 C 79 % 1025,7 hPa 0,0 l/m 0,0 km/h N 7,6 C 11,1 C 0,0 km/h
24.09.2016 02:00 10,7 C 81 % 1025,6 hPa 0,0 l/m 0,0 km/h N 7,6 C 10,7 C 0,0 km/h
24.09.2016 03:00 10,5 C 81 % 1025,5 hPa 0,0 l/m 0,0 km/h N 7,4 C 10,5 C 0,0 km/h
24.09.2016 04:00 10,3 C 81 % 1025,6 hPa 0,0 l/m 0,0 km/h N 7,2 C 10,3 C 0,0 km/h
24.09.2016 05:00 9,5 C 82 % 1025,9 hPa 0,0 l/m 0,0 km/h N 6,6 C 9,5 C 0,0 km/h
24.09.2016 06:00 8,6 C 83 % 1026,0 hPa 0,0 l/m 0,0 km/h N 5,8 C 8,6 C 0,0 km/h
24.09.2016 07:00 8,1 C 83 % 1026,6 hPa 0,0 l/m 0,0 km/h N 5,3 C 8,1 C 0,0 km/h
24.09.2016 08:00 9,7 C 82 % 1026,9 hPa 0,0 l/m 0,0 km/h N 6,8 C 9,7 C 0,0 km/h
24.09.2016 09:00 12,9 C 82 % 1026,8 hPa 0,0 l/m 0,0 km/h N 9,9 C 12,9 C 0,0 km/h
24.09.2016 10:00 17,5 C 73 % 1026,7 hPa 0,0 l/m 0,0 km/h N 12,6 C 17,5 C 0,0 km/h
24.09.2016 11:00 20,8 C 58 % 1026,4 hPa 0,0 l/m 0,1 km/h N 12,2 C 20,8 C 2,4 km/h
24.09.2016 12:00 21,5 C 51 % 1026,2 hPa 0,0 l/m 0,8 km/h N 11,0 C 21,5 C 9,6 km/h
24.09.2016 13:00 21,6 C 49 % 1025,6 hPa 0,0 l/m 1,4 km/h N 10,4 C 21,6 C 9,6 km/h
24.09.2016 14:00 21,6 C 48 % 1025,0 hPa 0,0 l/m 1,7 km/h N 10,0 C 21,6 C 8,4 km/h
24.09.2016 15:00 21,9 C 46 % 1024,5 hPa 0,0 l/m 0,7 km/h N 9,7 C 21,9 C 6,4 km/h
24.09.2016 16:00 21,6 C 48 % 1024,2 hPa 0,0 l/m 0,2 km/h N 10,0 C 21,6 C 5,2 km/h
24.09.2016 17:00 21,0 C 49 % 1024,1 hPa 0,0 l/m 0,2 km/h N 9,8 C 21,0 C 4,8 km/h
24.09.2016 18:00 19,8 C 53 % 1024,1 hPa 0,0 l/m 0,0 km/h N 9,8 C 19,8 C 0,4 km/h
24.09.2016 19:00 17,2 C 61 % 1024,3 hPa 0,0 l/m 0,0 km/h N 9,5 C 17,2 C 0,0 km/h
24.09.2016 20:00 14,4 C 70 % 1024,3 hPa 0,0 l/m 0,0 km/h N 8,8 C 14,4 C 0,0 km/h
24.09.2016 21:00 12,8 C 76 % 1024,3 hPa 0,0 l/m 0,0 km/h N 8,6 C 12,8 C 0,4 km/h
24.09.2016 22:00 12,1 C 78 % 1024,1 hPa 0,0 l/m 0,0 km/h N 8,3 C 12,1 C 0,0 km/h
24.09.2016 23:00 11,4 C 80 % 1023,6 hPa 0,0 l/m 0,0 km/h N 7,9 C 11,4 C 0,0 km/h
25.09.2016 00:00 10,6 C 80 % 1023,2 hPa 0,0 l/m 0,0 km/h N 7,3 C 10,6 C 0,0 km/h
25.09.2016 01:00 9,9 C 81 % 1022,8 hPa 0,0 l/m 0,0 km/h N 6,8 C 9,9 C 0,0 km/h
25.09.2016 02:00 9,3 C 82 % 1022,6 hPa 0,0 l/m 0,0 km/h N 6,4 C 9,3 C 0,4 km/h
25.09.2016 03:00 8,6 C 83 % 1022,5 hPa 0,0 l/m 0,0 km/h N 5,8 C 8,6 C 0,0 km/h
25.09.2016 04:00 8,1 C 83 % 1022,6 hPa 0,0 l/m 0,0 km/h N 5,4 C 8,1 C 0,0 km/h
25.09.2016 05:00 7,7 C 83 % 1022,6 hPa 0,0 l/m 0,0 km/h N 5,0 C 7,7 C 0,0 km/h
25.09.2016 06:00 7,3 C 83 % 1022,7 hPa 0,0 l/m 0,0 km/h N 4,6 C 7,3 C 0,0 km/h
25.09.2016 07:00 7,1 C 83 % 1023,1 hPa 0,0 l/m 0,0 km/h N 4,4 C 7,1 C 0,0 km/h
25.09.2016 08:00 8,8 C 83 % 1022,9 hPa 0,0 l/m 0,0 km/h N 6,1 C 8,8 C 0,0 km/h
25.09.2016 09:00 11,8 C 82 % 1022,7 hPa 0,0 l/m 0,0 km/h N 8,8 C 11,8 C 0,8 km/h
25.09.2016 10:00 15,6 C 79 % 1022,3 hPa 0,0 l/m 0,3 km/h N 12,0 C 15,6 C 5,6 km/h
25.09.2016 11:00 18,6 C 67 % 1021,8 hPa 0,0 l/m 0,1 km/h N 12,4 C 18,6 C 3,6 km/h
25.09.2016 12:00 20,7 C 60 % 1021,2 hPa 0,0 l/m 0,4 km/h N 12,7 C 20,7 C 4,8 km/h
25.09.2016 13:00 21,9 C 55 % 1020,5 hPa 0,0 l/m 0,6 km/h N 12,5 C 21,9 C 6,8 km/h
25.09.2016 14:00 22,3 C 51 % 1019,7 hPa 0,0 l/m 0,9 km/h N 11,5 C 22,3 C 7,6 km/h
25.09.2016 15:00 22,3 C 48 % 1019,3 hPa 0,0 l/m 0,5 km/h N 10,8 C 22,3 C 6,8 km/h
25.09.2016 16:00 21,3 C 50 % 1019,0 hPa 0,0 l/m 0,2 km/h N 10,4 C 21,3 C 3,2 km/h
25.09.2016 17:00 20,7 C 52 % 1018,8 hPa 0,0 l/m 0,0 km/h N 10,5 C 20,7 C 0,4 km/h
25.09.2016 18:00 19,4 C 57 % 1019,0 hPa 0,0 l/m 0,0 km/h N 10,5 C 19,4 C 0,0 km/h
25.09.2016 19:00 16,8 C 64 % 1019,4 hPa 0,0 l/m 0,0 km/h N 10,0 C 16,8 C 0,0 km/h
25.09.2016 20:00 14,4 C 72 % 1019,8 hPa 0,0 l/m 0,0 km/h N 9,4 C 14,4 C 1,2 km/h
25.09.2016 21:00 13,7 C 76 % 1020,1 hPa 0,0 l/m 0,5 km/h N 9,5 C 13,7 C 2,4 km/h
25.09.2016 22:00 12,4 C 78 % 1020,1 hPa 0,0 l/m 0,0 km/h N 8,7 C 12,4 C 0,0 km/h
25.09.2016 23:00 11,3 C 80 % 1020,3 hPa 0,0 l/m 0,0 km/h N 8,0 C 11,3 C 0,0 km/h
Min-Datum _ 23.09.16 24.09.16 19.09.16 - 19.09.16 - 23.09.16 23.09.16 19.09.16
_ Min-Zeit 06:30 15:15 14:30 - 00:00 - 06:15 06:15 00:00
Minimum _ 5,8 C 44 % 1009,4 hPa - 0,0 km/h - 3,2 C 5,9 C 0,0 km/h
Max-Datum _ 25.09.16 23.09.16 24.09.16 19.09.16 19.09.16 - 19.09.16 25.09.16 19.09.16
_ Max-Zeit 15:00 06:00 08:00 00:00 14:30 - 12:15 15:00 14:15
Maximum _ 22,6 C 83 % 1026,9 hPa 0,0 l/m 11,2 km/h
N
- 14,8 C 22,6 C 30,6 km/h
N
Durchschnitt _ 14,5 C 70 % 1019,3 hPa #0,0 l/m 2,3 km/h N 8,8 C 14,3 C 8,9 km/h